sensor_id;sensor_type;location;lat;lon;timestamp;pressure;altitude;pressure_sealevel;temperature;humidity
12879;BME280;20617;49.476;10.986;2023-02-28T00:01:06;99128.72;;;-1.05;100.00
12879;BME280;20617;49.476;10.986;2023-02-28T00:03:11;99129.59;;;-1.05;100.00
12879;BME280;20617;49.476;10.986;2023-02-28T00:05:20;99129.63;;;-1.03;100.00
12879;BME280;20617;49.476;10.986;2023-02-28T00:07:25;99129.53;;;-1.08;100.00
12879;BME280;20617;49.476;10.986;2023-02-28T00:09:30;99130.28;;;-1.14;100.00
12879;BME280;20617;49.476;10.986;2023-02-28T00:11:35;99127.81;;;-1.09;100.00
12879;BME280;20617;49.476;10.986;2023-02-28T00:13:42;99122.69;;;-1.10;100.00
12879;BME280;20617;49.476;10.986;2023-02-28T00:15:58;99122.66;;;-1.12;100.00
12879;BME280;20617;49.476;10.986;2023-02-28T00:18:03;99125.25;;;-1.09;100.00
12879;BME280;20617;49.476;10.986;2023-02-28T00:20:10;99127.00;;;-1.06;100.00
12879;BME280;20617;49.476;10.986;2023-02-28T00:22:16;99128.66;;;-1.10;100.00
12879;BME280;20617;49.476;10.986;2023-02-28T00:24:21;99125.16;;;-1.14;100.00
12879;BME280;20617;49.476;10.986;2023-02-28T00:26:26;99130.34;;;-1.10;100.00
12879;BME280;20617;49.476;10.986;2023-02-28T00:28:31;99123.50;;;-1.11;100.00
12879;BME280;20617;49.476;10.986;2023-02-28T00:30:38;99119.28;;;-1.09;100.00
12879;BME280;20617;49.476;10.986;2023-02-28T00:32:45;99122.69;;;-1.10;100.00
12879;BME280;20617;49.476;10.986;2023-02-28T00:34:50;99128.66;;;-1.08;100.00
12879;BME280;20617;49.476;10.986;2023-02-28T00:36:55;99121.00;;;-1.10;100.00
12879;BME280;20617;49.476;10.986;2023-02-28T00:39:00;99121.91;;;-1.06;100.00
12879;BME280;20617;49.476;10.986;2023-02-28T00:41:05;99133.84;;;-1.05;100.00
12879;BME280;20617;49.476;10.986;2023-02-28T00:43:10;99129.59;;;-1.05;100.00
12879;BME280;20617;49.476;10.986;2023-02-28T00:45:15;99130.34;;;-1.10;100.00
12879;BME280;20617;49.476;10.986;2023-02-28T00:47:20;99126.88;;;-1.14;100.00
12879;BME280;20617;49.476;10.986;2023-02-28T00:49:27;99126.09;;;-1.10;100.00
12879;BME280;20617;49.476;10.986;2023-02-28T00:51:32;99123.50;;;-1.11;100.00
12879;BME280;20617;49.476;10.986;2023-02-28T00:53:37;99118.34;;;-1.15;100.00
12879;BME280;20617;49.476;10.986;2023-02-28T00:55:42;99122.59;;;-1.15;100.00
12879;BME280;20617;49.476;10.986;2023-02-28T00:57:46;99111.53;;;-1.14;100.00
12879;BME280;20617;49.476;10.986;2023-02-28T00:59:51;99118.41;;;-1.11;100.00
12879;BME280;20617;49.476;10.986;2023-02-28T01:01:56;99114.97;;;-1.12;100.00
12879;BME280;20617;49.476;10.986;2023-02-28T01:04:01;99114.09;;;-1.14;100.00
12879;BME280;20617;49.476;10.986;2023-02-28T01:06:09;99106.38;;;-1.17;100.00
12879;BME280;20617;49.476;10.986;2023-02-28T01:08:14;99112.34;;;-1.17;100.00
12879;BME280;20617;49.476;10.986;2023-02-28T01:10:19;99111.47;;;-1.17;100.00
12879;BME280;20617;49.476;10.986;2023-02-28T01:12:24;99110.50;;;-1.24;100.00
12879;BME280;20617;49.476;10.986;2023-02-28T01:14:31;99111.41;;;-1.22;100.00
12879;BME280;20617;49.476;10.986;2023-02-28T01:16:36;99102.84;;;-1.24;100.00
12879;BME280;20617;49.476;10.986;2023-02-28T01:18:42;99101.16;;;-1.23;100.00
12879;BME280;20617;49.476;10.986;2023-02-28T01:20:47;99107.09;;;-1.24;100.00
12879;BME280;20617;49.476;10.986;2023-02-28T01:22:56;99098.69;;;-1.19;100.00
12879;BME280;20617;49.476;10.986;2023-02-28T01:25:01;99102.94;;;-1.19;100.00
12879;BME280;20617;49.476;10.986;2023-02-28T01:27:06;99100.47;;;-1.15;100.00
12879;BME280;20617;49.476;10.986;2023-02-28T01:29:11;99106.41;;;-1.14;100.00
12879;BME280;20617;49.476;10.986;2023-02-28T01:31:20;99097.97;;;-1.11;100.00
12879;BME280;20617;49.476;10.986;2023-02-28T01:33:25;99097.94;;;-1.13;100.00
12879;BME280;20617;49.476;10.986;2023-02-28T01:35:32;99101.41;;;-1.09;100.00
12879;BME280;20617;49.476;10.986;2023-02-28T01:37:37;99097.97;;;-1.11;100.00
12879;BME280;20617;49.476;10.986;2023-02-28T01:39:44;99106.47;;;-1.12;100.00
12879;BME280;20617;49.476;10.986;2023-02-28T01:41:49;99089.41;;;-1.14;100.00
12879;BME280;20617;49.476;10.986;2023-02-28T01:43:58;99093.59;;;-1.17;100.00
12879;BME280;20617;49.476;10.986;2023-02-28T01:46:05;99093.63;;;-1.16;100.00
12879;BME280;20617;49.476;10.986;2023-02-28T01:48:10;99089.38;;;-1.15;100.00
12879;BME280;20617;49.476;10.986;2023-02-28T01:50:20;99084.28;;;-1.14;100.00
12879;BME280;20617;49.476;10.986;2023-02-28T01:52:27;99091.03;;;-1.17;100.00
12879;BME280;20617;49.476;10.986;2023-02-28T01:54:33;99090.22;;;-1.16;100.00
12879;BME280;20617;49.476;10.986;2023-02-28T01:56:44;99090.22;;;-1.16;100.00
12879;BME280;20617;49.476;10.986;2023-02-28T01:58:51;99091.03;;;-1.17;100.00
12879;BME280;20617;49.476;10.986;2023-02-28T02:00:57;99086.72;;;-1.20;100.00
12879;BME280;20617;49.476;10.986;2023-02-28T02:03:06;99085.81;;;-1.23;100.00
12879;BME280;20617;49.476;10.986;2023-02-28T02:05:15;99090.09;;;-1.22;100.00
12879;BME280;20617;49.476;10.986;2023-02-28T02:07:21;99089.22;;;-1.24;100.00
12879;BME280;20617;49.476;10.986;2023-02-28T02:09:26;99092.72;;;-1.19;100.00
12879;BME280;20617;49.476;10.986;2023-02-28T02:11:34;99082.50;;;-1.19;100.00
12879;BME280;20617;49.476;10.986;2023-02-28T02:13:55;99086.78;;;-1.18;100.00
12879;BME280;20617;49.476;10.986;2023-02-28T02:16:14;99089.22;;;-1.23;100.00
12879;BME280;20617;49.476;10.986;2023-02-28T02:18:30;99087.56;;;-1.21;100.00
12879;BME280;20617;49.476;10.986;2023-02-28T02:20:44;99084.13;;;-1.23;100.00
12879;BME280;20617;49.476;10.986;2023-02-28T02:23:13;99078.03;;;-1.31;100.00
12879;BME280;20617;49.476;10.986;2023-02-28T02:25:28;99079.72;;;-1.31;100.00
12879;BME280;20617;49.476;10.986;2023-02-28T02:27:48;99075.50;;;-1.31;100.00
12879;BME280;20617;49.476;10.986;2023-02-28T02:30:22;99068.63;;;-1.32;100.00
12879;BME280;20617;49.476;10.986;2023-02-28T02:32:49;99067.72;;;-1.35;100.00
12879;BME280;20617;49.476;10.986;2023-02-28T02:35:10;99069.44;;;-1.34;100.00
12879;BME280;20617;49.476;10.986;2023-02-28T02:37:25;99064.25;;;-1.39;100.00
12879;BME280;20617;49.476;10.986;2023-02-28T02:39:42;99068.47;;;-1.41;100.00
12879;BME280;20617;49.476;10.986;2023-02-28T02:41:51;99069.31;;;-1.42;100.00
12879;BME280;20617;49.476;10.986;2023-02-28T02:44:02;99071.94;;;-1.38;100.00
12879;BME280;20617;49.476;10.986;2023-02-28T02:46:12;99062.63;;;-1.35;100.00
12879;BME280;20617;49.476;10.986;2023-02-28T02:48:21;99060.88;;;-1.38;100.00
12879;BME280;20617;49.476;10.986;2023-02-28T02:50:38;99064.31;;;-1.36;100.00
12879;BME280;20617;49.476;10.986;2023-02-28T02:52:48;99069.44;;;-1.34;100.00
12879;BME280;20617;49.476;10.986;2023-02-28T02:54:57;99071.13;;;-1.35;100.00
12879;BME280;20617;49.476;10.986;2023-02-28T02:57:07;99071.97;;;-1.36;100.00
12879;BME280;20617;49.476;10.986;2023-02-28T02:59:15;99068.53;;;-1.40;100.00
12879;BME280;20617;49.476;10.986;2023-02-28T03:01:25;99067.66;;;-1.39;100.00
12879;BME280;20617;49.476;10.986;2023-02-28T03:03:33;99074.47;;;-1.39;100.00
12879;BME280;20617;49.476;10.986;2023-02-28T03:05:44;99070.28;;;-1.35;100.00
12879;BME280;20617;49.476;10.986;2023-02-28T03:07:50;99073.63;;;-1.38;100.00
12879;BME280;20617;49.476;10.986;2023-02-28T03:09:56;99076.97;;;-1.42;100.00
12879;BME280;20617;49.476;10.986;2023-02-28T03:12:03;99071.88;;;-1.41;100.00
12879;BME280;20617;49.476;10.986;2023-02-28T03:14:25;99079.53;;;-1.41;100.00
12879;BME280;20617;49.476;10.986;2023-02-28T03:16:40;99069.31;;;-1.42;100.00
12879;BME280;20617;49.476;10.986;2023-02-28T03:18:57;99069.25;;;-1.45;100.00
12879;BME280;20617;49.476;10.986;2023-02-28T03:21:18;99075.19;;;-1.46;100.00
12879;BME280;20617;49.476;10.986;2023-02-28T03:23:30;99074.38;;;-1.45;100.00
12879;BME280;20617;49.476;10.986;2023-02-28T03:25:51;99078.56;;;-1.47;100.00
12879;BME280;20617;49.476;10.986;2023-02-28T03:28:03;99074.31;;;-1.48;100.00
12879;BME280;20617;49.476;10.986;2023-02-28T03:30:18;99084.53;;;-1.47;100.00
12879;BME280;20617;49.476;10.986;2023-02-28T03:32:34;99077.78;;;-1.45;100.00
12879;BME280;20617;49.476;10.986;2023-02-28T03:34:43;99077.78;;;-1.43;100.00
12879;BME280;20617;49.476;10.986;2023-02-28T03:36:57;99088.00;;;-1.43;100.00
12879;BME280;20617;49.476;10.986;2023-02-28T03:39:05;99084.59;;;-1.44;100.00
12879;BME280;20617;49.476;10.986;2023-02-28T03:41:15;99077.72;;;-1.48;100.00
12879;BME280;20617;49.476;10.986;2023-02-28T03:43:24;99081.97;;;-1.47;100.00
12879;BME280;20617;49.476;10.986;2023-02-28T03:45:34;99085.25;;;-1.54;100.00
12879;BME280;20617;49.476;10.986;2023-02-28T03:47:43;99080.22;;;-1.51;100.00
12879;BME280;20617;49.476;10.986;2023-02-28T03:49:53;99089.63;;;-1.48;100.00
12879;BME280;20617;49.476;10.986;2023-02-28T03:52:04;99085.44;;;-1.45;100.00
12879;BME280;20617;49.476;10.986;2023-02-28T03:54:13;99088.78;;;-1.47;100.00
12879;BME280;20617;49.476;10.986;2023-02-28T03:56:23;99088.75;;;-1.49;100.00
12879;BME280;20617;49.476;10.986;2023-02-28T03:58:35;99091.28;;;-1.50;100.00
12879;BME280;20617;49.476;10.986;2023-02-28T04:00:45;99087.88;;;-1.49;100.00
12879;BME280;20617;49.476;10.986;2023-02-28T04:02:51;99088.72;;;-1.50;100.00
12879;BME280;20617;49.476;10.986;2023-02-28T04:04:56;99093.69;;;-1.58;100.00
12879;BME280;20617;49.476;10.986;2023-02-28T04:07:04;99090.31;;;-1.55;100.00
12879;BME280;20617;49.476;10.986;2023-02-28T04:09:11;99089.53;;;-1.53;100.00
12879;BME280;20617;49.476;10.986;2023-02-28T04:11:21;99097.25;;;-1.50;100.00
12879;BME280;20617;49.476;10.986;2023-02-28T04:13:26;99088.66;;;-1.53;100.00
12879;BME280;20617;49.476;10.986;2023-02-28T04:15:33;99085.31;;;-1.51;100.00
12879;BME280;20617;49.476;10.986;2023-02-28T04:17:38;99092.19;;;-1.48;100.00
12879;BME280;20617;49.476;10.986;2023-02-28T04:19:43;99093.91;;;-1.47;100.00
12879;BME280;20617;49.476;10.986;2023-02-28T04:21:50;99096.47;;;-1.46;100.00
12879;BME280;20617;49.476;10.986;2023-02-28T04:23:58;99090.56;;;-1.43;100.00
12879;BME280;20617;49.476;10.986;2023-02-28T04:26:03;99097.47;;;-1.38;100.00
12879;BME280;20617;49.476;10.986;2023-02-28T04:28:08;99094.00;;;-1.41;100.00
12879;BME280;20617;49.476;10.986;2023-02-28T04:30:14;99094.91;;;-1.39;100.00
12879;BME280;20617;49.476;10.986;2023-02-28T04:32:19;99093.16;;;-1.40;100.00
12879;BME280;20617;49.476;10.986;2023-02-28T04:34:25;99086.44;;;-1.37;100.00
12879;BME280;20617;49.476;10.986;2023-02-28T04:36:30;99089.00;;;-1.35;100.00
12879;BME280;20617;49.476;10.986;2023-02-28T04:38:37;99089.84;;;-1.36;100.00
12879;BME280;20617;49.476;10.986;2023-02-28T04:40:45;99101.78;;;-1.37;100.00
12879;BME280;20617;49.476;10.986;2023-02-28T04:42:49;99095.84;;;-1.34;100.00
12879;BME280;20617;49.476;10.986;2023-02-28T04:44:54;99095.88;;;-1.32;100.00
12879;BME280;20617;49.476;10.986;2023-02-28T04:46:59;99097.56;;;-1.33;100.00
12879;BME280;20617;49.476;10.986;2023-02-28T04:49:04;99087.34;;;-1.33;100.00
12879;BME280;20617;49.476;10.986;2023-02-28T04:51:14;99100.88;;;-1.37;100.00
12879;BME280;20617;49.476;10.986;2023-02-28T04:53:20;99095.75;;;-1.39;100.00
12879;BME280;20617;49.476;10.986;2023-02-28T04:55:25;99091.41;;;-1.44;100.00
12879;BME280;20617;49.476;10.986;2023-02-28T04:57:32;99091.41;;;-1.44;100.00
12879;BME280;20617;49.476;10.986;2023-02-28T04:59:37;99088.00;;;-1.43;100.00
12879;BME280;20617;49.476;10.986;2023-02-28T05:01:45;99094.88;;;-1.41;100.00
12879;BME280;20617;49.476;10.986;2023-02-28T05:03:52;99089.69;;;-1.44;100.00
12879;BME280;20617;49.476;10.986;2023-02-28T05:05:57;99089.69;;;-1.45;100.00
12879;BME280;20617;49.476;10.986;2023-02-28T05:08:02;99092.25;;;-1.44;100.00
12879;BME280;20617;49.476;10.986;2023-02-28T05:10:07;99092.25;;;-1.45;100.00
12879;BME280;20617;49.476;10.986;2023-02-28T05:12:12;99100.78;;;-1.43;100.00
12879;BME280;20617;49.476;10.986;2023-02-28T05:14:20;99094.81;;;-1.44;100.00
12879;BME280;20617;49.476;10.986;2023-02-28T05:16:25;99101.66;;;-1.41;100.00
12879;BME280;20617;49.476;10.986;2023-02-28T05:18:30;99093.16;;;-1.42;100.00
12879;BME280;20617;49.476;10.986;2023-02-28T05:20:35;99103.31;;;-1.43;100.00
12879;BME280;20617;49.476;10.986;2023-02-28T05:22:40;99108.53;;;-1.39;100.00
12879;BME280;20617;49.476;10.986;2023-02-28T05:24:45;99106.03;;;-1.35;100.00
12879;BME280;20617;49.476;10.986;2023-02-28T05:26:51;99104.22;;;-1.41;100.00
12879;BME280;20617;49.476;10.986;2023-02-28T05:28:57;99104.28;;;-1.38;100.00
12879;BME280;20617;49.476;10.986;2023-02-28T05:31:04;99102.50;;;-1.42;100.00
12879;BME280;20617;49.476;10.986;2023-02-28T05:33:10;99110.19;;;-1.42;100.00
12879;BME280;20617;49.476;10.986;2023-02-28T05:35:16;99114.53;;;-1.37;100.00
12879;BME280;20617;49.476;10.986;2023-02-28T05:37:20;99115.41;;;-1.36;100.00
12879;BME280;20617;49.476;10.986;2023-02-28T05:39:25;99108.59;;;-1.35;100.00
12879;BME280;20617;49.476;10.986;2023-02-28T05:41:30;99115.41;;;-1.34;100.00
12879;BME280;20617;49.476;10.986;2023-02-28T05:43:36;99106.19;;;-1.28;100.00
12879;BME280;20617;49.476;10.986;2023-02-28T05:45:41;99109.63;;;-1.26;100.00
12879;BME280;20617;49.476;10.986;2023-02-28T05:47:48;99113.84;;;-1.28;100.00
12879;BME280;20617;49.476;10.986;2023-02-28T05:49:53;99108.69;;;-1.29;100.00
12879;BME280;20617;49.476;10.986;2023-02-28T05:51:58;99108.69;;;-1.29;100.00
12879;BME280;20617;49.476;10.986;2023-02-28T05:54:03;99108.69;;;-1.29;100.00
12879;BME280;20617;49.476;10.986;2023-02-28T05:56:08;99107.00;;;-1.30;100.00
12879;BME280;20617;49.476;10.986;2023-02-28T05:58:13;99105.97;;;-1.39;100.00
12879;BME280;20617;49.476;10.986;2023-02-28T06:00:19;99104.19;;;-1.43;100.00
12879;BME280;20617;49.476;10.986;2023-02-28T06:02:23;99110.19;;;-1.41;100.00
12879;BME280;20617;49.476;10.986;2023-02-28T06:04:31;99118.81;;;-1.35;100.00
12879;BME280;20617;49.476;10.986;2023-02-28T06:06:36;99124.72;;;-1.38;100.00
12879;BME280;20617;49.476;10.986;2023-02-28T06:08:41;99124.72;;;-1.38;100.00
12879;BME280;20617;49.476;10.986;2023-02-28T06:10:46;99123.00;;;-1.39;100.00
12879;BME280;20617;49.476;10.986;2023-02-28T06:12:51;99132.41;;;-1.37;100.00
12879;BME280;20617;49.476;10.986;2023-02-28T06:14:56;99128.91;;;-1.40;100.00
12879;BME280;20617;49.476;10.986;2023-02-28T06:17:02;99124.66;;;-1.41;100.00
12879;BME280;20617;49.476;10.986;2023-02-28T06:19:08;99126.41;;;-1.39;100.00
12879;BME280;20617;49.476;10.986;2023-02-28T06:21:15;99122.16;;;-1.40;100.00
12879;BME280;20617;49.476;10.986;2023-02-28T06:23:20;99119.59;;;-1.40;100.00
12879;BME280;20617;49.476;10.986;2023-02-28T06:25:26;99125.66;;;-1.33;100.00
12879;BME280;20617;49.476;10.986;2023-02-28T06:27:34;99118.03;;;-1.31;100.00
12879;BME280;20617;49.476;10.986;2023-02-28T06:29:39;99121.47;;;-1.31;100.00
12879;BME280;20617;49.476;10.986;2023-02-28T06:31:44;99140.22;;;-1.29;100.00
12879;BME280;20617;49.476;10.986;2023-02-28T06:33:49;99140.25;;;-1.27;100.00
12879;BME280;20617;49.476;10.986;2023-02-28T06:35:54;99140.25;;;-1.26;100.00
12879;BME280;20617;49.476;10.986;2023-02-28T06:38:02;99136.91;;;-1.25;100.00
12879;BME280;20617;49.476;10.986;2023-02-28T06:40:08;99138.59;;;-1.24;100.00
12879;BME280;20617;49.476;10.986;2023-02-28T06:42:15;99138.63;;;-1.22;100.00
12879;BME280;20617;49.476;10.986;2023-02-28T06:44:23;99133.59;;;-1.19;100.00
12879;BME280;20617;49.476;10.986;2023-02-28T06:46:27;99140.38;;;-1.21;100.00
12879;BME280;20617;49.476;10.986;2023-02-28T06:48:33;99148.16;;;-1.15;100.00
12879;BME280;20617;49.476;10.986;2023-02-28T06:50:38;99141.34;;;-1.15;100.00
12879;BME280;20617;49.476;10.986;2023-02-28T06:52:43;99147.41;;;-1.08;100.00
12879;BME280;20617;49.476;10.986;2023-02-28T06:54:50;99143.09;;;-1.12;100.00
12879;BME280;20617;49.476;10.986;2023-02-28T06:57:01;99143.09;;;-1.12;100.00
12879;BME280;20617;49.476;10.986;2023-02-28T06:59:06;99147.47;;;-1.06;100.00
12879;BME280;20617;49.476;10.986;2023-02-28T07:01:13;99149.16;;;-1.05;100.00
12879;BME280;20617;49.476;10.986;2023-02-28T07:03:20;99149.16;;;-1.07;100.00
12879;BME280;20617;49.476;10.986;2023-02-28T07:05:28;99150.91;;;-1.04;100.00
12879;BME280;20617;49.476;10.986;2023-02-28T07:07:33;99160.25;;;-1.05;100.00
12879;BME280;20617;49.476;10.986;2023-02-28T07:09:40;99155.97;;;-1.07;100.00
12879;BME280;20617;49.476;10.986;2023-02-28T07:11:47;99150.97;;;-1.00;100.00
12879;BME280;20617;49.476;10.986;2023-02-28T07:13:53;99161.34;;;-0.92;100.00
12879;BME280;20617;49.476;10.986;2023-02-28T07:15:59;99159.69;;;-0.88;100.00
12879;BME280;20617;49.476;10.986;2023-02-28T07:18:05;99153.84;;;-0.83;100.00
12879;BME280;20617;49.476;10.986;2023-02-28T07:20:11;99163.22;;;-0.82;100.00
12879;BME280;20617;49.476;10.986;2023-02-28T07:22:17;99158.16;;;-0.79;100.00
12879;BME280;20617;49.476;10.986;2023-02-28T07:24:22;99159.97;;;-0.73;100.00
12879;BME280;20617;49.476;10.986;2023-02-28T07:26:30;99163.53;;;-0.66;100.00
12879;BME280;20617;49.476;10.986;2023-02-28T07:28:38;99160.78;;;-0.76;100.00
12879;BME280;20617;49.476;10.986;2023-02-28T07:30:44;99159.25;;;-0.66;100.00
12879;BME280;20617;49.476;10.986;2023-02-28T07:32:50;99156.69;;;-0.66;100.00
12879;BME280;20617;49.476;10.986;2023-02-28T07:34:56;99155.94;;;-0.59;100.00
12879;BME280;20617;49.476;10.986;2023-02-28T07:37:01;99158.47;;;-0.62;100.00
12879;BME280;20617;49.476;10.986;2023-02-28T07:39:07;99152.63;;;-0.53;100.00
12879;BME280;20617;49.476;10.986;2023-02-28T07:41:12;99157.03;;;-0.46;100.00
12879;BME280;20617;49.476;10.986;2023-02-28T07:43:17;99154.59;;;-0.38;100.00
12879;BME280;20617;49.476;10.986;2023-02-28T07:45:24;99159.88;;;-0.28;100.00
12879;BME280;20617;49.476;10.986;2023-02-28T07:47:30;99153.16;;;-0.21;100.00
12879;BME280;20617;49.476;10.986;2023-02-28T07:49:36;99155.84;;;-0.12;100.00
12879;BME280;20617;49.476;10.986;2023-02-28T07:51:41;99160.31;;;0.00;100.00
12879;BME280;20617;49.476;10.986;2023-02-28T07:53:46;99156.16;;;0.08;100.00
12879;BME280;20617;49.476;10.986;2023-02-28T07:55:51;99152.00;;;0.15;100.00
12879;BME280;20617;49.476;10.986;2023-02-28T07:57:57;99154.56;;;0.16;100.00
12879;BME280;20617;49.476;10.986;2023-02-28T08:00:02;99153.66;;;0.14;100.00
12879;BME280;20617;49.476;10.986;2023-02-28T08:02:16;99160.53;;;0.17;100.00
12879;BME280;20617;49.476;10.986;2023-02-28T08:04:21;99152.06;;;0.22;100.00
12879;BME280;20617;49.476;10.986;2023-02-28T08:06:26;99158.09;;;0.25;100.00
12879;BME280;20617;49.476;10.986;2023-02-28T08:08:34;99153.91;;;0.31;100.00
12879;BME280;20617;49.476;10.986;2023-02-28T08:10:39;99160.84;;;0.38;100.00
12879;BME280;20617;49.476;10.986;2023-02-28T08:12:44;99161.84;;;0.51;100.00
12879;BME280;20617;49.476;10.986;2023-02-28T08:14:49;99152.47;;;0.50;100.00
12879;BME280;20617;49.476;10.986;2023-02-28T08:16:54;99163.66;;;0.58;100.00
12879;BME280;20617;49.476;10.986;2023-02-28T08:19:01;99154.31;;;0.62;100.00
12879;BME280;20617;49.476;10.986;2023-02-28T08:21:07;99147.34;;;0.52;100.00
12879;BME280;20617;49.476;10.986;2023-02-28T08:23:12;99144.03;;;0.59;100.00
12879;BME280;20617;49.476;10.986;2023-02-28T08:25:17;99154.19;;;0.54;100.00
12879;BME280;20617;49.476;10.986;2023-02-28T08:27:21;99152.53;;;0.56;100.00
12879;BME280;20617;49.476;10.986;2023-02-28T08:29:26;99153.53;;;0.67;100.00
12879;BME280;20617;49.476;10.986;2023-02-28T08:31:32;99156.97;;;0.73;100.00
12879;BME280;20617;49.476;10.986;2023-02-28T08:33:38;99153.59;;;0.75;100.00
12879;BME280;20617;49.476;10.986;2023-02-28T08:35:46;99153.69;;;0.83;100.00
12879;BME280;20617;49.476;10.986;2023-02-28T08:37:51;99147.72;;;0.82;100.00
12879;BME280;20617;49.476;10.986;2023-02-28T08:39:55;99140.84;;;0.81;100.00
12879;BME280;20617;49.476;10.986;2023-02-28T08:42:00;99142.63;;;0.87;100.00
12879;BME280;20617;49.476;10.986;2023-02-28T08:44:09;99145.22;;;0.88;100.00
12879;BME280;20617;49.476;10.986;2023-02-28T08:46:14;99147.81;;;0.92;100.00
12879;BME280;20617;49.476;10.986;2023-02-28T08:48:19;99148.78;;;1.04;100.00
12879;BME280;20617;49.476;10.986;2023-02-28T08:50:24;99150.59;;;1.11;100.00
12879;BME280;20617;49.476;10.986;2023-02-28T08:52:34;99142.91;;;1.16;100.00
12879;BME280;20617;49.476;10.986;2023-02-28T08:54:40;99147.25;;;1.22;100.00
12879;BME280;20617;49.476;10.986;2023-02-28T08:56:45;99150.78;;;1.33;100.00
12879;BME280;20617;49.476;10.986;2023-02-28T08:58:51;99146.50;;;1.32;100.00
12879;BME280;20617;49.476;10.986;2023-02-28T09:00:57;99143.91;;;1.30;100.00
12879;BME280;20617;49.476;10.986;2023-02-28T09:03:02;99143.94;;;1.32;100.00
12879;BME280;20617;49.476;10.986;2023-02-28T09:05:08;99148.22;;;1.31;100.00
12879;BME280;20617;49.476;10.986;2023-02-28T09:07:13;99142.28;;;1.37;100.00
12879;BME280;20617;49.476;10.986;2023-02-28T09:09:20;99151.78;;;1.46;100.00
12879;BME280;20617;49.476;10.986;2023-02-28T09:11:25;99149.19;;;1.46;100.00
12879;BME280;20617;49.476;10.986;2023-02-28T09:13:30;99144.13;;;1.53;100.00
12879;BME280;20617;49.476;10.986;2023-02-28T09:15:38;99146.75;;;1.61;100.00
12879;BME280;20617;49.476;10.986;2023-02-28T09:17:43;99140.84;;;1.73;100.00
12879;BME280;20617;49.476;10.986;2023-02-28T09:19:49;99134.94;;;1.83;100.00
12879;BME280;20617;49.476;10.986;2023-02-28T09:21:54;99143.53;;;1.91;100.00
12879;BME280;20617;49.476;10.986;2023-02-28T09:23:59;99139.28;;;1.95;100.00
12879;BME280;20617;49.476;10.986;2023-02-28T09:26:07;99138.53;;;2.07;100.00
12879;BME280;20617;49.476;10.986;2023-02-28T09:28:11;99143.69;;;2.14;100.00
12879;BME280;20617;49.476;10.986;2023-02-28T09:30:18;99143.75;;;2.23;100.00
12879;BME280;20617;49.476;10.986;2023-02-28T09:32:22;99140.47;;;2.51;100.00
12879;BME280;20617;49.476;10.986;2023-02-28T09:34:28;99142.25;;;2.70;100.00
12879;BME280;20617;49.476;10.986;2023-02-28T09:36:34;99131.16;;;2.85;100.00
12879;BME280;20617;49.476;10.986;2023-02-28T09:38:46;99135.47;;;2.93;100.00
12879;BME280;20617;49.476;10.986;2023-02-28T09:40:55;99133.81;;;3.09;100.00
12879;BME280;20617;49.476;10.986;2023-02-28T09:43:03;99132.97;;;3.15;100.00
12879;BME280;20617;49.476;10.986;2023-02-28T09:45:18;99138.97;;;3.31;100.00
12879;BME280;20617;49.476;10.986;2023-02-28T09:47:29;99144.13;;;3.28;100.00
12879;BME280;20617;49.476;10.986;2023-02-28T09:49:39;99133.81;;;3.34;100.00
12879;BME280;20617;49.476;10.986;2023-02-28T09:51:49;99143.28;;;3.43;100.00
12879;BME280;20617;49.476;10.986;2023-02-28T09:53:55;99141.56;;;3.42;100.00
12879;BME280;20617;49.476;10.986;2023-02-28T09:56:05;99146.72;;;3.38;100.00
12879;BME280;20617;49.476;10.986;2023-02-28T09:58:20;99137.28;;;3.36;100.00
12879;BME280;20617;49.476;10.986;2023-02-28T10:00:31;99137.25;;;3.34;100.00
12879;BME280;20617;49.476;10.986;2023-02-28T10:02:58;99135.53;;;3.21;98.61
12879;BME280;20617;49.476;10.986;2023-02-28T10:05:11;99139.81;;;3.19;100.00
12879;BME280;20617;49.476;10.986;2023-02-28T10:07:23;99142.38;;;3.25;100.00
12879;BME280;20617;49.476;10.986;2023-02-28T10:09:35;99139.81;;;3.17;98.17
12879;BME280;20617;49.476;10.986;2023-02-28T10:11:40;99146.63;;;3.05;99.07
12879;BME280;20617;49.476;10.986;2023-02-28T10:13:56;99142.34;;;3.02;99.63
12879;BME280;20617;49.476;10.986;2023-02-28T10:16:06;99134.63;;;3.02;98.61
12879;BME280;20617;49.476;10.986;2023-02-28T10:18:15;99139.78;;;3.01;99.46
12879;BME280;20617;49.476;10.986;2023-02-28T10:20:24;99138.06;;;3.07;99.06
12879;BME280;20617;49.476;10.986;2023-02-28T10:22:38;99138.09;;;3.16;99.93
12879;BME280;20617;49.476;10.986;2023-02-28T10:24:47;99142.38;;;3.13;98.82
12879;BME280;20617;49.476;10.986;2023-02-28T10:26:59;99127.81;;;3.06;98.95
12879;BME280;20617;49.476;10.986;2023-02-28T10:29:08;99147.50;;;3.01;98.39
12879;BME280;20617;49.476;10.986;2023-02-28T10:31:15;99144.91;;;2.96;98.29
12879;BME280;20617;49.476;10.986;2023-02-28T10:33:28;99136.38;;;3.03;98.81
12879;BME280;20617;49.476;10.986;2023-02-28T10:35:33;99133.78;;;3.06;97.56
12879;BME280;20617;49.476;10.986;2023-02-28T10:37:38;99132.06;;;3.08;96.57
12879;BME280;20617;49.476;10.986;2023-02-28T10:39:46;99132.09;;;3.17;97.29
12879;BME280;20617;49.476;10.986;2023-02-28T10:41:51;99126.13;;;3.29;96.99
12879;BME280;20617;49.476;10.986;2023-02-28T10:44:18;99120.97;;;3.29;93.39
12879;BME280;20617;49.476;10.986;2023-02-28T10:46:25;99124.38;;;3.25;95.15
12879;BME280;20617;49.476;10.986;2023-02-28T10:48:33;99123.53;;;3.23;93.95
12879;BME280;20617;49.476;10.986;2023-02-28T10:50:43;99132.97;;;3.33;93.67
12879;BME280;20617;49.476;10.986;2023-02-28T10:52:48;99131.28;;;3.38;91.94
12879;BME280;20617;49.476;10.986;2023-02-28T10:55:14;99123.56;;;3.38;91.45
12879;BME280;20617;49.476;10.986;2023-02-28T10:57:23;99130.41;;;3.50;92.88
12879;BME280;20617;49.476;10.986;2023-02-28T10:59:32;99121.84;;;3.59;91.72
12879;BME280;20617;49.476;10.986;2023-02-28T11:01:39;99120.13;;;3.53;89.69